createdAt,value
2023-05-01T00:02:25.707Z,4.43
2023-05-01T00:04:53.755Z,3.10
2023-05-01T00:07:22.254Z,4.78
2023-05-01T00:09:50.351Z,4.12
2023-05-01T00:12:18.634Z,4.53
2023-05-01T00:14:46.584Z,5.85
2023-05-01T00:17:14.605Z,3.42
2023-05-01T00:19:42.740Z,4.43
2023-05-01T00:22:10.690Z,3.53
2023-05-01T00:24:38.738Z,3.80
2023-05-01T00:27:07.020Z,3.62
2023-05-01T00:29:34.911Z,3.35
2023-05-01T00:32:02.843Z,3.20
2023-05-01T00:34:31.508Z,3.42
2023-05-01T00:37:00.141Z,3.62
2023-05-01T00:39:28.073Z,6.37
2023-05-01T00:41:57.107Z,3.60
2023-05-01T00:44:25.124Z,4.00
2023-05-01T00:46:53.065Z,3.22
2023-05-01T00:49:22.077Z,3.97
2023-05-01T00:51:54.292Z,3.85
2023-05-01T00:54:24.445Z,3.40
2023-05-01T00:56:53.789Z,3.92
2023-05-01T00:59:22.256Z,3.62
2023-05-01T01:01:50.326Z,4.03
2023-05-01T01:04:18.300Z,3.55
2023-05-01T01:07:00.047Z,3.70
2023-05-01T01:09:37.324Z,3.37
2023-05-01T01:12:21.872Z,3.78
2023-05-01T01:14:59.617Z,3.83
2023-05-01T01:17:43.611Z,4.62
2023-05-01T01:20:20.220Z,3.60
2023-05-01T01:23:00.247Z,4.57
2023-05-01T01:25:56.045Z,4.37
2023-05-01T01:28:54.684Z,4.00
2023-05-01T01:31:55.750Z,4.97
2023-05-01T01:34:36.983Z,3.92
2023-05-01T01:37:25.795Z,4.10
2023-05-01T01:40:05.456Z,4.82
2023-05-01T01:42:39.962Z,4.25
2023-05-01T01:45:20.638Z,4.43
2023-05-01T01:47:49.511Z,5.95
2023-05-01T01:50:19.971Z,5.35
2023-05-01T01:52:51.139Z,4.53
2023-05-01T01:55:22.980Z,5.10
2023-05-01T01:57:52.884Z,4.93
2023-05-01T02:00:21.963Z,4.90
2023-05-01T02:02:50.734Z,6.10
2023-05-01T02:05:20.871Z,6.35
2023-05-01T02:07:51.423Z,5.70
2023-05-01T02:10:21.191Z,5.10
2023-05-01T02:12:52.375Z,4.90
2023-05-01T02:15:21.988Z,5.00
2023-05-01T02:17:52.794Z,5.37
2023-05-01T02:20:22.599Z,5.10
2023-05-01T02:22:54.542Z,4.90
2023-05-01T02:25:22.580Z,5.80
2023-05-01T02:28:08.863Z,6.12
2023-05-01T02:30:37.277Z,4.65
2023-05-01T02:33:05.581Z,8.07
2023-05-01T02:35:33.424Z,5.55
2023-05-01T02:38:01.357Z,5.47
2023-05-01T02:40:29.979Z,5.30
2023-05-01T02:42:59.142Z,5.87
2023-05-01T02:45:28.590Z,5.53
2023-05-01T02:48:01.163Z,6.05
2023-05-01T02:50:29.900Z,6.35
2023-05-01T02:52:58.105Z,6.10
2023-05-01T02:55:26.561Z,7.15
2023-05-01T02:57:54.500Z,6.15
2023-05-01T03:00:22.549Z,6.20
2023-05-01T03:02:50.550Z,6.18
2023-05-01T03:05:18.565Z,7.12
2023-05-01T03:07:46.880Z,6.70
2023-05-01T03:10:14.944Z,6.53
2023-05-01T03:12:43.231Z,7.05
2023-05-01T03:15:13.385Z,6.57
2023-05-01T03:17:41.325Z,6.20
2023-05-01T03:20:10.875Z,6.20
2023-05-01T03:22:38.865Z,6.47
2023-05-01T03:25:07.185Z,6.07
2023-05-01T03:27:35.133Z,5.95
2023-05-01T03:30:03.052Z,6.35
2023-05-01T03:32:31.152Z,6.82
2023-05-01T03:34:59.048Z,7.03
2023-05-01T03:37:27.412Z,6.70
2023-05-01T03:39:55.673Z,6.12
2023-05-01T03:42:23.834Z,6.80
2023-05-01T03:44:51.866Z,7.60
2023-05-01T03:47:20.692Z,7.30
2023-05-01T03:49:48.997Z,6.95
2023-05-01T03:52:17.795Z,6.95
2023-05-01T03:54:46.030Z,6.78
2023-05-01T03:57:13.920Z,7.95
2023-05-01T03:59:41.899Z,5.93
2023-05-01T04:02:09.932Z,7.32
2023-05-01T04:04:37.975Z,6.93
2023-05-01T04:07:06.927Z,7.05
2023-05-01T04:09:34.841Z,8.30
2023-05-01T04:12:04.019Z,8.65
2023-05-01T04:14:32.346Z,8.88
2023-05-01T04:17:00.749Z,6.60
2023-05-01T04:19:29.306Z,8.25
2023-05-01T04:21:57.183Z,6.90
2023-05-01T04:24:25.143Z,7.20
2023-05-01T04:26:53.124Z,7.45
2023-05-01T04:29:21.099Z,7.45
2023-05-01T04:31:49.090Z,7.15
2023-05-01T04:34:17.540Z,7.80
2023-05-01T04:36:45.710Z,9.60
2023-05-01T04:39:13.670Z,7.32
2023-05-01T04:41:41.760Z,7.70
2023-05-01T04:44:09.650Z,7.78
2023-05-01T04:46:37.669Z,6.87
2023-05-01T04:49:05.622Z,8.30
2023-05-01T04:51:33.594Z,6.72
2023-05-01T04:54:01.478Z,8.70
2023-05-01T04:56:29.417Z,6.78
2023-05-01T04:58:57.487Z,7.53
2023-05-01T05:01:25.605Z,7.47
2023-05-01T05:03:53.707Z,7.68
2023-05-01T05:06:22.324Z,7.32
2023-05-01T05:08:53.301Z,7.00
2023-05-01T05:11:21.336Z,9.70
2023-05-01T05:13:49.355Z,7.55
2023-05-01T05:16:17.756Z,7.95
2023-05-01T05:18:45.606Z,7.53
2023-05-01T05:21:13.465Z,6.47
2023-05-01T05:23:42.235Z,6.47
2023-05-01T05:26:10.137Z,10.32
2023-05-01T05:28:37.956Z,7.40
2023-05-01T05:31:05.956Z,8.95
2023-05-01T05:33:34.032Z,7.50
2023-05-01T05:36:01.997Z,7.82
2023-05-01T05:38:29.861Z,7.22
2023-05-01T05:40:57.732Z,7.75
2023-05-01T05:43:27.347Z,8.10
2023-05-01T05:46:00.303Z,7.70
2023-05-01T05:48:29.296Z,7.68
2023-05-01T05:50:57.972Z,7.35
2023-05-01T05:53:26.969Z,7.05
2023-05-01T05:55:54.882Z,6.50
2023-05-01T05:58:23.836Z,7.35
2023-05-01T06:00:52.022Z,7.50
2023-05-01T06:03:20.686Z,6.87
2023-05-01T06:05:49.664Z,6.65
2023-05-01T06:08:17.829Z,7.37
2023-05-01T06:10:45.836Z,7.65
2023-05-01T06:13:15.107Z,6.87
2023-05-01T06:15:43.285Z,7.65
2023-05-01T06:18:11.276Z,7.50
2023-05-01T06:20:40.196Z,7.12
2023-05-01T06:23:09.851Z,5.93
2023-05-01T06:25:38.745Z,7.12
2023-05-01T06:28:06.905Z,7.07
2023-05-01T06:30:34.796Z,7.53
2023-05-01T06:33:02.854Z,6.72
2023-05-01T06:35:30.790Z,8.50
2023-05-01T06:37:58.812Z,7.37
2023-05-01T06:40:26.723Z,7.80
2023-05-01T06:42:54.662Z,7.90
2023-05-01T06:45:22.777Z,7.25
2023-05-01T06:47:50.852Z,7.62
2023-05-01T06:50:19.004Z,7.60
2023-05-01T06:52:46.937Z,8.32
2023-05-01T06:55:14.891Z,8.20
2023-05-01T06:57:43.010Z,7.55
2023-05-01T07:00:12.217Z,7.30
2023-05-01T07:02:42.098Z,7.68
2023-05-01T07:05:10.497Z,7.45
2023-05-01T07:07:42.232Z,6.60
2023-05-01T07:10:15.427Z,7.18
2023-05-01T07:12:43.321Z,7.22
2023-05-01T07:15:11.511Z,7.85
2023-05-01T07:17:39.548Z,7.80
2023-05-01T07:20:08.174Z,7.80
2023-05-01T07:22:36.132Z,6.55
2023-05-01T07:25:04.851Z,7.00
2023-05-01T07:27:32.779Z,7.00
2023-05-01T07:30:02.024Z,7.60
2023-05-01T07:32:29.983Z,6.75
2023-05-01T07:34:57.961Z,8.73
2023-05-01T07:37:28.304Z,6.65
2023-05-01T07:39:56.323Z,6.78
2023-05-01T07:42:24.812Z,8.40
2023-05-01T07:44:53.133Z,6.43
2023-05-01T07:47:21.308Z,6.78
2023-05-01T07:49:49.306Z,6.25
2023-05-01T07:52:17.277Z,6.57
2023-05-01T07:54:45.227Z,6.40
2023-05-01T07:57:13.263Z,6.60
2023-05-01T07:59:41.262Z,5.93
2023-05-01T08:02:09.266Z,6.60
2023-05-01T08:04:37.320Z,6.82
2023-05-01T08:07:05.365Z,6.22
2023-05-01T08:09:33.343Z,6.97
2023-05-01T08:12:01.852Z,7.82
2023-05-01T08:14:29.898Z,6.75
2023-05-01T08:16:57.821Z,6.70
2023-05-01T08:19:26.028Z,6.10
2023-05-01T08:21:54.472Z,6.00
2023-05-01T08:24:22.485Z,5.82
2023-05-01T08:26:50.411Z,5.43
2023-05-01T08:29:18.323Z,5.75
2023-05-01T08:31:46.796Z,6.05
2023-05-01T08:34:14.807Z,5.70
2023-05-01T08:36:42.852Z,5.62
2023-05-01T08:39:10.809Z,5.53
2023-05-01T08:41:39.716Z,5.72
2023-05-01T08:44:10.468Z,5.30
2023-05-01T08:46:46.011Z,5.30
2023-05-01T08:49:17.464Z,5.47
2023-05-01T08:51:53.959Z,5.93
2023-05-01T08:54:22.554Z,5.05
2023-05-01T08:56:52.887Z,5.32
2023-05-01T08:59:22.851Z,4.57
2023-05-01T09:01:52.580Z,4.62
2023-05-01T09:04:21.052Z,5.28
2023-05-01T09:06:49.001Z,4.30
2023-05-01T09:09:17.655Z,5.68
2023-05-01T09:11:46.572Z,4.75
2023-05-01T09:14:14.474Z,5.07
2023-05-01T09:16:42.473Z,4.47
2023-05-01T09:19:11.111Z,4.45
2023-05-01T09:21:39.423Z,4.62
2023-05-01T09:24:07.430Z,5.80
2023-05-01T09:26:38.283Z,5.07
2023-05-01T09:29:07.471Z,4.25
2023-05-01T09:31:36.262Z,4.50
2023-05-01T09:34:06.289Z,4.47
2023-05-01T09:36:35.767Z,3.83
2023-05-01T09:39:04.163Z,4.55
2023-05-01T09:41:35.312Z,4.57
2023-05-01T09:44:03.434Z,7.28
2023-05-01T09:46:43.983Z,5.50
2023-05-01T09:49:11.920Z,4.03
2023-05-01T09:51:39.761Z,4.70
2023-05-01T09:54:19.929Z,4.85
2023-05-01T09:56:51.226Z,3.78
2023-05-01T09:59:21.450Z,4.45
2023-05-01T10:01:51.408Z,6.68
2023-05-01T10:04:19.553Z,4.28
2023-05-01T10:06:47.798Z,3.70
2023-05-01T10:09:28.573Z,4.00
2023-05-01T10:11:58.740Z,4.62
2023-05-01T10:14:28.184Z,3.83
2023-05-01T10:16:57.706Z,4.03
2023-05-01T10:19:25.849Z,3.78
2023-05-01T10:21:54.729Z,4.15
2023-05-01T10:24:22.789Z,3.30
2023-05-01T10:26:52.287Z,3.67
2023-05-01T10:29:24.731Z,3.40
2023-05-01T10:31:52.980Z,2.50
2023-05-01T10:34:26.245Z,4.97
2023-05-01T10:37:20.692Z,3.75
2023-05-01T10:39:48.600Z,2.90
2023-05-01T10:42:16.614Z,2.90
2023-05-01T10:44:45.272Z,3.58
2023-05-01T10:47:36.185Z,2.80
2023-05-01T10:50:11.958Z,3.12
2023-05-01T10:53:13.935Z,3.92
2023-05-01T10:55:49.243Z,3.00
2023-05-01T10:58:38.895Z,3.15
2023-05-01T11:01:30.352Z,3.40
2023-05-01T11:04:00.206Z,3.45
2023-05-01T11:06:28.474Z,3.65
2023-05-01T11:08:57.030Z,2.70
2023-05-01T11:11:28.205Z,3.03
2023-05-01T11:14:09.641Z,3.60
2023-05-01T11:16:40.828Z,3.10
2023-05-01T11:19:22.589Z,3.15
2023-05-01T11:21:51.929Z,2.80
2023-05-01T11:24:21.184Z,2.58
2023-05-01T11:26:50.032Z,2.22
2023-05-01T11:29:18.683Z,2.65
2023-05-01T11:31:49.812Z,3.30
2023-05-01T11:34:18.471Z,3.70
2023-05-01T11:36:51.283Z,2.55
2023-05-01T11:39:20.193Z,3.58
2023-05-01T11:41:48.636Z,3.70
2023-05-01T11:44:18.697Z,3.20
2023-05-01T11:46:46.867Z,3.33
2023-05-01T11:49:14.706Z,2.90
2023-05-01T11:51:42.635Z,3.55
2023-05-01T11:54:13.774Z,3.37
2023-05-01T11:56:44.069Z,3.65
2023-05-01T11:59:18.378Z,3.25
2023-05-01T12:01:48.015Z,2.55
2023-05-01T12:04:29.738Z,2.60
2023-05-01T12:06:59.822Z,2.35
2023-05-01T12:09:28.805Z,2.50
2023-05-01T12:11:57.214Z,2.37
2023-05-01T12:14:25.748Z,2.20
2023-05-01T12:16:53.815Z,2.85
2023-05-01T12:19:24.086Z,4.05
2023-05-01T12:22:07.496Z,2.42
2023-05-01T12:24:35.629Z,2.67
2023-05-01T12:27:04.897Z,2.70
2023-05-01T12:29:43.175Z,2.87
2023-05-01T12:32:11.743Z,4.50
2023-05-01T12:34:39.864Z,3.80
2023-05-01T12:37:07.895Z,2.40
2023-05-01T12:39:46.251Z,2.10
2023-05-01T12:42:15.948Z,2.05
2023-05-01T12:44:45.475Z,2.22
2023-05-01T12:47:14.310Z,3.42
2023-05-01T12:49:42.912Z,3.08
2023-05-01T12:52:11.017Z,4.05
2023-05-01T12:54:41.317Z,2.50
2023-05-01T12:57:13.272Z,2.90
2023-05-01T12:59:42.981Z,2.33
2023-05-01T13:02:18.263Z,2.47
2023-05-01T13:04:48.419Z,2.50
2023-05-01T13:07:20.683Z,5.10
2023-05-01T13:10:00.151Z,3.62
2023-05-01T13:12:29.746Z,2.70
2023-05-01T13:14:58.434Z,4.57
2023-05-01T13:17:27.756Z,4.45
2023-05-01T13:19:57.207Z,5.40
2023-05-01T13:22:36.262Z,6.20
2023-05-01T13:25:24.753Z,2.20
2023-05-01T13:27:53.923Z,2.47
2023-05-01T13:30:31.920Z,2.67
2023-05-01T13:32:59.958Z,2.22
2023-05-01T13:35:28.739Z,2.70
2023-05-01T13:37:56.810Z,1.80
2023-05-01T13:40:27.390Z,2.70
2023-05-01T13:42:55.404Z,2.53
2023-05-01T13:45:23.568Z,3.67
2023-05-01T13:47:53.193Z,2.62
2023-05-01T13:50:21.605Z,1.58
2023-05-01T13:52:49.776Z,1.80
2023-05-01T13:55:19.034Z,1.90
2023-05-01T13:57:46.963Z,1.90
2023-05-01T14:00:19.408Z,2.40
2023-05-01T14:02:50.117Z,2.30
2023-05-01T14:05:24.661Z,3.75
2023-05-01T14:07:56.837Z,3.00
2023-05-01T14:10:27.679Z,3.17
2023-05-01T14:13:02.311Z,2.65
2023-05-01T14:15:30.915Z,2.58
2023-05-01T14:18:00.204Z,2.42
2023-05-01T14:20:28.460Z,2.85
2023-05-01T14:22:56.417Z,2.47
2023-05-01T14:25:32.626Z,2.50
2023-05-01T14:28:02.583Z,2.10
2023-05-01T14:30:35.829Z,2.65
2023-05-01T14:33:07.743Z,2.70
2023-05-01T14:35:36.771Z,2.05
2023-05-01T14:38:39.928Z,2.62
2023-05-01T14:41:10.007Z,1.65
2023-05-01T14:43:42.796Z,1.77
2023-05-01T14:46:13.963Z,3.17
2023-05-01T14:48:43.183Z,2.62
2023-05-01T14:51:14.172Z,1.55
2023-05-01T14:53:45.198Z,1.60
2023-05-01T14:56:13.902Z,1.45
2023-05-01T14:58:42.908Z,2.85
2023-05-01T15:01:11.066Z,1.48
2023-05-01T15:03:42.040Z,1.42
2023-05-01T15:06:10.296Z,1.40
2023-05-01T15:08:39.472Z,1.70
2023-05-01T15:11:07.530Z,1.70
2023-05-01T15:13:35.432Z,1.33
2023-05-01T15:16:03.989Z,1.83
2023-05-01T15:18:32.004Z,2.33
2023-05-01T15:21:00.068Z,1.00
2023-05-01T15:23:29.160Z,1.00
2023-05-01T15:25:57.039Z,1.40
2023-05-01T15:28:26.420Z,1.58
2023-05-01T15:30:54.573Z,2.78
2023-05-01T15:33:23.709Z,1.85
2023-05-01T15:35:54.029Z,2.35
2023-05-01T15:38:22.961Z,1.42
2023-05-01T15:40:51.330Z,1.83
2023-05-01T15:43:19.226Z,1.83
2023-05-01T15:45:47.269Z,2.70
2023-05-01T15:48:15.381Z,2.28
2023-05-01T15:50:43.371Z,2.20
2023-05-01T15:53:11.336Z,2.72
2023-05-01T15:55:39.481Z,1.95
2023-05-01T15:58:07.511Z,2.47
2023-05-01T16:00:37.277Z,3.35
2023-05-01T16:03:05.780Z,2.75
2023-05-01T16:05:33.918Z,5.72
2023-05-01T16:08:02.882Z,2.45
2023-05-01T16:10:30.934Z,2.33
2023-05-01T16:12:59.186Z,5.75
2023-05-01T16:15:27.055Z,2.40
2023-05-01T16:17:56.335Z,2.58
2023-05-01T16:20:25.047Z,2.30
2023-05-01T16:22:53.315Z,2.95
2023-05-01T16:25:21.365Z,3.42
2023-05-01T16:27:49.368Z,3.40
2023-05-01T16:30:17.364Z,2.97
2023-05-01T16:32:46.216Z,2.45
2023-05-01T16:35:19.151Z,2.15
2023-05-01T16:37:47.234Z,2.85
2023-05-01T16:40:19.415Z,2.83
2023-05-01T16:42:53.127Z,3.83
2023-05-01T16:45:21.748Z,3.12
2023-05-01T16:47:49.816Z,3.45
2023-05-01T16:50:18.336Z,3.33
2023-05-01T16:52:46.322Z,4.00
2023-05-01T16:55:14.458Z,3.67
2023-05-01T16:57:44.261Z,4.12
2023-05-01T17:00:13.047Z,4.07
2023-05-01T17:02:41.049Z,3.70
2023-05-01T17:05:09.592Z,4.97
2023-05-01T17:07:37.605Z,4.70
2023-05-01T17:10:05.969Z,5.20
2023-05-01T17:12:33.906Z,3.28
2023-05-01T17:15:01.919Z,3.62
2023-05-01T17:17:29.821Z,3.72
2023-05-01T17:19:58.049Z,3.28
2023-05-01T17:22:27.862Z,5.03
2023-05-01T17:24:57.615Z,4.32
2023-05-01T17:27:25.619Z,4.65
2023-05-01T17:29:53.542Z,4.80
2023-05-01T17:32:35.872Z,4.00
2023-05-01T17:35:05.946Z,5.72
2023-05-01T17:37:34.420Z,5.05
2023-05-01T17:40:03.076Z,3.67
2023-05-01T17:42:31.200Z,3.35
2023-05-01T17:44:59.066Z,3.33
2023-05-01T17:47:27.424Z,3.03
2023-05-01T17:49:55.636Z,4.15
2023-05-01T17:52:23.507Z,3.58
2023-05-01T17:54:51.562Z,4.53
2023-05-01T17:57:19.508Z,2.67
2023-05-01T17:59:47.996Z,3.15
2023-05-01T18:02:15.995Z,4.05
2023-05-01T18:04:43.973Z,2.60
2023-05-01T18:07:11.984Z,15.38
2023-05-01T18:09:39.903Z,3.10
2023-05-01T18:12:07.840Z,3.45
2023-05-01T18:14:35.814Z,2.70
2023-05-01T18:17:03.951Z,5.43
2023-05-01T18:19:32.085Z,2.50
2023-05-01T18:22:00.706Z,3.50
2023-05-01T18:24:28.630Z,2.20
2023-05-01T18:26:56.533Z,2.65
2023-05-01T18:29:24.566Z,2.45
2023-05-01T18:31:52.476Z,2.37
2023-05-01T18:34:20.846Z,2.50
2023-05-01T18:36:49.890Z,2.35
2023-05-01T18:39:17.788Z,2.30
2023-05-01T18:41:45.788Z,2.33
2023-05-01T18:44:13.720Z,2.12
2023-05-01T18:46:42.624Z,2.00
2023-05-01T18:49:10.529Z,2.55
2023-05-01T18:51:38.653Z,2.03
2023-05-01T18:54:08.420Z,2.20
2023-05-01T18:56:36.412Z,2.22
2023-05-01T18:59:04.371Z,1.98
2023-05-01T19:01:32.745Z,2.00
2023-05-01T19:04:01.319Z,2.25
2023-05-01T19:06:29.335Z,3.08
2023-05-01T19:08:57.408Z,2.30
2023-05-01T19:11:27.570Z,2.25
2023-05-01T19:13:55.460Z,2.97
2023-05-01T19:16:23.582Z,3.25
2023-05-01T19:18:51.423Z,2.95
2023-05-01T19:21:19.751Z,3.25
2023-05-01T19:23:48.704Z,3.25
2023-05-01T19:26:16.799Z,2.60
2023-05-01T19:28:44.754Z,2.60
2023-05-01T19:31:14.445Z,2.53
2023-05-01T19:33:42.713Z,2.53
2023-05-01T19:36:10.664Z,5.00
2023-05-01T19:38:38.613Z,5.60
2023-05-01T19:41:06.672Z,3.10
2023-05-01T19:43:34.564Z,3.25
2023-05-01T19:46:02.497Z,2.95
2023-05-01T19:48:30.649Z,2.62
2023-05-01T19:50:58.609Z,3.78
2023-05-01T19:53:26.643Z,5.03
2023-05-01T19:55:54.864Z,2.40
2023-05-01T19:58:23.079Z,3.45
2023-05-01T20:00:51.180Z,2.40
2023-05-01T20:03:19.302Z,2.47
2023-05-01T20:05:47.213Z,2.60
2023-05-01T20:08:15.150Z,3.75
2023-05-01T20:10:43.100Z,3.65
2023-05-01T20:13:11.985Z,2.75
2023-05-01T20:15:41.025Z,3.03
2023-05-01T20:18:09.466Z,3.83
2023-05-01T20:20:37.404Z,2.17
2023-05-01T20:23:15.798Z,2.12
2023-05-01T20:25:44.098Z,3.72
2023-05-01T20:28:14.272Z,2.35
2023-05-01T20:30:44.938Z,2.37
2023-05-01T20:33:13.466Z,1.75
2023-05-01T20:35:41.670Z,1.95
2023-05-01T20:38:09.695Z,2.17
2023-05-01T20:40:41.348Z,2.62
2023-05-01T20:43:09.341Z,1.70
2023-05-01T20:45:37.376Z,1.83
2023-05-01T20:48:05.522Z,1.70
2023-05-01T20:50:33.611Z,1.98
2023-05-01T20:53:01.643Z,1.77
2023-05-01T20:55:29.796Z,1.80
2023-05-01T20:57:57.797Z,2.85
2023-05-01T21:00:25.789Z,1.95
2023-05-01T21:02:54.173Z,2.28
2023-05-01T21:05:22.278Z,1.98
2023-05-01T21:07:50.225Z,1.75
2023-05-01T21:10:18.180Z,3.83
2023-05-01T21:12:46.167Z,1.70
2023-05-01T21:15:14.121Z,2.28
2023-05-01T21:17:42.395Z,1.77
2023-05-01T21:20:17.887Z,1.90
2023-05-01T21:22:46.989Z,1.80
2023-05-01T21:25:17.638Z,1.90
2023-05-01T21:27:45.460Z,1.40
2023-05-01T21:30:17.284Z,2.22
2023-05-01T21:32:45.444Z,1.55
2023-05-01T21:35:17.314Z,1.85
2023-05-01T21:37:46.622Z,1.52
2023-05-01T21:40:15.776Z,1.90
2023-05-01T21:42:43.812Z,2.28
2023-05-01T21:45:14.426Z,1.37
2023-05-01T21:47:47.653Z,2.62
2023-05-01T21:50:17.752Z,2.83
2023-05-01T21:52:47.591Z,2.03
2023-05-01T21:55:27.003Z,2.17
2023-05-01T21:57:55.022Z,1.80
2023-05-01T22:00:23.233Z,2.22
2023-05-01T22:02:52.326Z,2.70
2023-05-01T22:05:23.604Z,2.00
2023-05-01T22:07:55.356Z,2.28
2023-05-01T22:10:23.330Z,2.28
2023-05-01T22:12:51.591Z,3.72
2023-05-01T22:15:19.735Z,3.20
2023-05-01T22:17:47.674Z,2.20
2023-05-01T22:20:15.737Z,3.62
2023-05-01T22:22:44.419Z,3.55
2023-05-01T22:25:13.486Z,3.55
2023-05-01T22:27:42.115Z,4.05
2023-05-01T22:30:10.460Z,4.15
2023-05-01T22:32:38.436Z,6.05
2023-05-01T22:35:06.953Z,4.97
2023-05-01T22:37:34.824Z,3.25
2023-05-01T22:40:03.001Z,4.55
2023-05-01T22:42:31.118Z,3.37
2023-05-01T22:44:58.963Z,3.30
2023-05-01T22:47:26.980Z,3.12
2023-05-01T22:49:54.850Z,4.47
2023-05-01T22:52:22.716Z,4.18
2023-05-01T22:54:53.242Z,3.37
2023-05-01T22:57:21.119Z,3.55
2023-05-01T22:59:49.842Z,3.37
2023-05-01T23:02:18.959Z,2.85
2023-05-01T23:04:47.410Z,2.90
2023-05-01T23:07:15.535Z,2.90
2023-05-01T23:09:43.833Z,2.58
2023-05-01T23:12:29.628Z,3.33
2023-05-01T23:14:57.544Z,3.42
2023-05-01T23:17:28.467Z,3.80
2023-05-01T23:19:59.616Z,3.62
2023-05-01T23:22:27.777Z,3.47
2023-05-01T23:24:55.685Z,3.37
2023-05-01T23:27:23.925Z,2.90
2023-05-01T23:29:58.866Z,3.08
2023-05-01T23:32:32.119Z,3.30
2023-05-01T23:35:15.034Z,2.97
2023-05-01T23:37:43.285Z,3.42
2023-05-01T23:40:11.501Z,3.60
2023-05-01T23:42:40.730Z,3.00
2023-05-01T23:45:09.576Z,3.28
2023-05-01T23:47:38.682Z,3.20
2023-05-01T23:50:07.691Z,3.20
2023-05-01T23:52:35.708Z,2.95
2023-05-01T23:55:03.739Z,3.15
2023-05-01T23:57:31.628Z,2.72
2023-05-01T23:59:59.563Z,3.50
